Giewont — C6YE4 — position and weather

sailwx.info

Track history (hours):
 
Tides and Currents Weather Stations Pressure Air Temp Water Temp Dewpoint Dewpoint Depression Visibility Wind Speed Wind Dir Waves Ship Positions

Giewont

Last reported at 2017-Feb-26 15:20 UTC. Time now 2017-Mar-26 01:30 UTC.
Position N 36°30' E 014°38'.
Warning: this ship's position is 27 days out of date.

Length 229 m; draft 11.8 m.

Type: Cargo ship. MMSI: 311029800.

Date/timePositionNaut miles runAvg speedWind from/ knotsBaromVisibWave heightAir tempDewpointWater temp
2017-Feb-26 15:20N 36°30' E 014°38'912.0
2017-Feb-26 14:33N 36°32' E 014°27'1212.2
2017-Feb-26 13:33N 36°36' E 014°13'1212.3
2017-Feb-26 12:33N 36°40' E 013°58'1312.7
2017-Feb-26 11:33N 36°43' E 013°43'  
2017-Feb-23 07:33N 36°02' W 005°16'10 9.9
2017-Feb-23 06:33N 36°10' W 005°24'1 0.8
2017-Feb-23 05:29N 36°10' W 005°24'0 0.0
2017-Feb-23 04:32N 36°10' W 005°24'0 0.0
2017-Feb-23 03:32N 36°10' W 005°24'0 0.0
2017-Feb-23 02:32N 36°10' W 005°24'0 0.0
2017-Feb-23 01:32N 36°10' W 005°24'0 0.0
2017-Feb-23 00:32N 36°10' W 005°24'0 0.1
2017-Feb-22 23:29N 36°10' W 005°24'0 0.1
2017-Feb-22 22:32N 36°10' W 005°24'0 0.0
2017-Feb-22 21:32N 36°10' W 005°24'0 0.0
2017-Feb-22 20:32N 36°10' W 005°24'0 0.0
2017-Feb-22 19:32N 36°10' W 005°24'0 0.0
2017-Feb-22 18:33N 36°10' W 005°24'0 0.2
2017-Feb-22 17:33N 36°10' W 005°24'2 2.4
2017-Feb-22 16:34N 36°08' W 005°23'9 8.6
2017-Feb-22 15:33N 36°06' W 005°13'10 9.9
2017-Feb-22 14:34N 36°12' W 005°04'1 1.1
2017-Feb-22 13:32N 36°13' W 005°04'1 1.5
2017-Feb-22 12:33N 36°14' W 005°05'1 0.8
2017-Feb-22 11:34N 36°14' W 005°04'1 0.7
2017-Feb-22 10:33N 36°14' W 005°04'4 3.8
2017-Feb-22 09:34N 36°14' W 005°08'1 0.9
2017-Feb-22 08:34N 36°14' W 005°09'1 1.4
2017-Feb-22 07:34N 36°14' W 005°08'0 0.5
2017-Feb-22 06:34N 36°14' W 005°08'1 0.8
2017-Feb-22 05:34N 36°13' W 005°07'4 4.1
2017-Feb-22 04:33N 36°13' W 005°02'5 4.8
2017-Feb-22 03:33N 36°14' W 004°56'2 1.4
2017-Feb-22 02:11N 36°12' W 004°58'2 3.0
2017-Feb-22 01:33N 36°12' W 005°00'3 2.6
2017-Feb-22 00:33N 36°12' W 005°04'3 2.8
2017-Feb-21 23:33N 36°12' W 005°07'3 2.9
2017-Feb-21 22:33N 36°13' W 005°11'6 5.7
2017-Feb-21 21:34N 36°13' W 005°04'6 2.8
2017-Feb-21 19:31N 36°12' W 004°56'3 2.5
2017-Feb-21 18:25N 36°13' W 004°60'3 2.9
2017-Feb-21 17:33N 36°14' W 005°03'1 1.4
2017-Feb-21 16:34N 36°14' W 005°05'1 1.1
2017-Feb-21 15:34N 36°14' W 005°06'0 0.5
2017-Feb-21 14:33N 36°14' W 005°06'1 0.7
2017-Feb-21 13:34N 36°14' W 005°07'1 1.0
2017-Feb-21 12:34N 36°13' W 005°08'1 0.9
2017-Feb-21 11:34N 36°13' W 005°09'1 1.0
2017-Feb-21 10:34N 36°13' W 005°08'6 6.0
2017-Feb-21 09:34N 36°15' W 005°01'2 0.2
2017-Feb-20 23:26N 36°17' W 004°60'1 1.4
2017-Feb-20 22:33N 36°16' W 005°01'1 1.0
2017-Feb-20 21:34N 36°16' W 005°02'1 0.8
2017-Feb-20 20:34N 36°15' W 005°03'1 0.7
2017-Feb-20 19:32N 36°14' W 005°03'1 0.5
2017-Feb-20 18:08N 36°14' W 005°04'0 0.7
2017-Feb-20 17:33N 36°13' W 005°03'1 0.7
2017-Feb-20 16:34N 36°13' W 005°03'1 0.7
2017-Feb-20 15:34N 36°12' W 005°04'1 0.7
2017-Feb-20 14:33N 36°11' W 005°04'2 1.5
2017-Feb-20 13:34N 36°11' W 005°06'1 0.9
2017-Feb-20 12:34N 36°11' W 005°07'1 0.6
2017-Feb-20 11:33N 36°11' W 005°07'1 1.0
2017-Feb-20 10:34N 36°10' W 005°07'4 4.1
2017-Feb-20 09:33N 36°13' W 005°11'2 1.5
2017-Feb-20 08:33N 36°14' W 005°12'2 1.9
2017-Feb-20 07:32N 36°13' W 005°10'2 2.1
2017-Feb-20 06:32N 36°12' W 005°08'2 1.9
2017-Feb-20 05:33N 36°11' W 005°09'4 4.5
2017-Feb-20 04:33N 36°08' W 005°13'7 6.5
2017-Feb-20 03:34N 36°04' W 005°20'9 8.7
2017-Feb-20 02:33N 35°58' W 005°27'10 9.7
2017-Feb-20 01:33N 35°55' W 005°39'  
2017-Feb-17 01:30N 37°06' W 022°60'1212.0
2017-Feb-17 00:28N 37°06' W 023°15'1112.0
2017-Feb-16 23:33N 37°06' W 023°29'1212.2
2017-Feb-16 22:33N 37°07' W 023°44'1212.3
2017-Feb-16 21:34N 37°07' W 023°59'1212.2
2017-Feb-16 20:33N 37°07' W 024°15'1312.5
2017-Feb-16 19:33N 37°07' W 024°30'1312.5
2017-Feb-16 18:33N 37°07' W 024°46'1212.2
2017-Feb-16 17:34N 37°08' W 025°01'1212.2
2017-Feb-16 16:34N 37°08' W 025°17'1212.3
2017-Feb-16 15:33N 37°08' W 025°32'  
Track history (hours):
 
Tides and Currents Weather Stations Pressure Air Temp Water Temp Dewpoint Dewpoint Depression Visibility Wind Speed Wind Dir Waves Ship Positions

Giewont

Last reported at 2017-Feb-26 15:20 UTC. Time now 2017-Mar-26 01:30 UTC.
Position N 36°30' E 014°38'.
Warning: this ship's position is 27 days out of date.

Length 229 m; draft 11.8 m.

Type: Cargo ship. MMSI: 311029800.

Date/timePositionNaut miles runAvg speedWind from/ knotsBaromVisibWave heightAir tempDewpointWater temp
2017-Feb-26 15:20N 36°30' E 014°38'912.0
2017-Feb-26 14:33N 36°32' E 014°27'1212.2
2017-Feb-26 13:33N 36°36' E 014°13'1212.3
2017-Feb-26 12:33N 36°40' E 013°58'1312.7
2017-Feb-26 11:33N 36°43' E 013°43'  
2017-Feb-23 07:33N 36°02' W 005°16'10 9.9
2017-Feb-23 06:33N 36°10' W 005°24'1 0.8
2017-Feb-23 05:29N 36°10' W 005°24'0 0.0
2017-Feb-23 04:32N 36°10' W 005°24'0 0.0
2017-Feb-23 03:32N 36°10' W 005°24'0 0.0
2017-Feb-23 02:32N 36°10' W 005°24'0 0.0
2017-Feb-23 01:32N 36°10' W 005°24'0 0.0
2017-Feb-23 00:32N 36°10' W 005°24'0 0.1
2017-Feb-22 23:29N 36°10' W 005°24'0 0.1
2017-Feb-22 22:32N 36°10' W 005°24'0 0.0
2017-Feb-22 21:32N 36°10' W 005°24'0 0.0
2017-Feb-22 20:32N 36°10' W 005°24'0 0.0
2017-Feb-22 19:32N 36°10' W 005°24'0 0.0
2017-Feb-22 18:33N 36°10' W 005°24'0 0.2
2017-Feb-22 17:33N 36°10' W 005°24'2 2.4
2017-Feb-22 16:34N 36°08' W 005°23'9 8.6
2017-Feb-22 15:33N 36°06' W 005°13'10 9.9
2017-Feb-22 14:34N 36°12' W 005°04'1 1.1
2017-Feb-22 13:32N 36°13' W 005°04'1 1.5
2017-Feb-22 12:33N 36°14' W 005°05'1 0.8
2017-Feb-22 11:34N 36°14' W 005°04'1 0.7
2017-Feb-22 10:33N 36°14' W 005°04'4 3.8
2017-Feb-22 09:34N 36°14' W 005°08'1 0.9
2017-Feb-22 08:34N 36°14' W 005°09'1 1.4
2017-Feb-22 07:34N 36°14' W 005°08'0 0.5
2017-Feb-22 06:34N 36°14' W 005°08'1 0.8
2017-Feb-22 05:34N 36°13' W 005°07'4 4.1
2017-Feb-22 04:33N 36°13' W 005°02'5 4.8
2017-Feb-22 03:33N 36°14' W 004°56'2 1.4
2017-Feb-22 02:11N 36°12' W 004°58'2 3.0
2017-Feb-22 01:33N 36°12' W 005°00'3 2.6
2017-Feb-22 00:33N 36°12' W 005°04'3 2.8
2017-Feb-21 23:33N 36°12' W 005°07'3 2.9
2017-Feb-21 22:33N 36°13' W 005°11'6 5.7
2017-Feb-21 21:34N 36°13' W 005°04'6 2.8
2017-Feb-21 19:31N 36°12' W 004°56'3 2.5
2017-Feb-21 18:25N 36°13' W 004°60'3 2.9
2017-Feb-21 17:33N 36°14' W 005°03'1 1.4
2017-Feb-21 16:34N 36°14' W 005°05'1 1.1
2017-Feb-21 15:34N 36°14' W 005°06'0 0.5
2017-Feb-21 14:33N 36°14' W 005°06'1 0.7
2017-Feb-21 13:34N 36°14' W 005°07'1 1.0
2017-Feb-21 12:34N 36°13' W 005°08'1 0.9
2017-Feb-21 11:34N 36°13' W 005°09'1 1.0
2017-Feb-21 10:34N 36°13' W 005°08'6 6.0
2017-Feb-21 09:34N 36°15' W 005°01'2 0.2
2017-Feb-20 23:26N 36°17' W 004°60'1 1.4
2017-Feb-20 22:33N 36°16' W 005°01'1 1.0
2017-Feb-20 21:34N 36°16' W 005°02'1 0.8
2017-Feb-20 20:34N 36°15' W 005°03'1 0.7
2017-Feb-20 19:32N 36°14' W 005°03'1 0.5
2017-Feb-20 18:08N 36°14' W 005°04'0 0.7
2017-Feb-20 17:33N 36°13' W 005°03'1 0.7
2017-Feb-20 16:34N 36°13' W 005°03'1 0.7
2017-Feb-20 15:34N 36°12' W 005°04'1 0.7
2017-Feb-20 14:33N 36°11' W 005°04'2 1.5
2017-Feb-20 13:34N 36°11' W 005°06'1 0.9
2017-Feb-20 12:34N 36°11' W 005°07'1 0.6
2017-Feb-20 11:33N 36°11' W 005°07'1 1.0
2017-Feb-20 10:34N 36°10' W 005°07'4 4.1
2017-Feb-20 09:33N 36°13' W 005°11'2 1.5
2017-Feb-20 08:33N 36°14' W 005°12'2 1.9
2017-Feb-20 07:32N 36°13' W 005°10'2 2.1
2017-Feb-20 06:32N 36°12' W 005°08'2 1.9
2017-Feb-20 05:33N 36°11' W 005°09'4 4.5
2017-Feb-20 04:33N 36°08' W 005°13'7 6.5
2017-Feb-20 03:34N 36°04' W 005°20'9 8.7
2017-Feb-20 02:33N 35°58' W 005°27'10 9.7
2017-Feb-20 01:33N 35°55' W 005°39'  
2017-Feb-17 01:30N 37°06' W 022°60'1212.0
2017-Feb-17 00:28N 37°06' W 023°15'1112.0
2017-Feb-16 23:33N 37°06' W 023°29'1212.2
2017-Feb-16 22:33N 37°07' W 023°44'1212.3
2017-Feb-16 21:34N 37°07' W 023°59'1212.2
2017-Feb-16 20:33N 37°07' W 024°15'1312.5
2017-Feb-16 19:33N 37°07' W 024°30'1312.5
2017-Feb-16 18:33N 37°07' W 024°46'1212.2
2017-Feb-16 17:34N 37°08' W 025°01'1212.2
2017-Feb-16 16:34N 37°08' W 025°17'1212.3
2017-Feb-16 15:33N 37°08' W 025°32'  

Dump ship's entire track history